Pagina principale
METAR-TAF:

METAR-TAF

Aeroporti :

Aviano, Italia

Base aerea di Aviano

latitudine: 46-02N, longitudine: 012-36E, altezza: 128 m

Osservazione

Il bollettino è stato emesso 19 ore e 4 minuti fa, alle 20:55 UTC
Vento 4 kt da nord/nord-est
Temperature 6°C
Umidità 87%
Pressione 1017 hPa
Visibilità 10 km o più
Poco nuvoloso ad un'altezza di 9000 ft

METAR: LIPA 182055Z 02004KT 9999 FEW090 06/04 Q1017 RMK FEW VIS MIN 9999 WIND THR05 /////KT WIND THR23 /////KT A3004 BLU

Ora: 16:59 (15:59 UTC)

Previsione

Il bollettino è stato emesso 19 ore e 59 minuti fa, alle 20:00 UTC
Previsione valida dal 18 alle 21 UTC al 19 alle 06 UTC
Vento 6 kt da est/nord-est
Visibilità 10 km o più
Poco nuvoloso ad un'altezza di 9000 ft

TAF: LIPA 182000Z 1821/1906 06006KT 9999 FEW090

Osservazioni e previsioni meteorologiche di più di 4000 aeroporti (messaggi METAR e TAF).

Le stazioni disponibili sono rappresentate dai dischi gialli e rossi sulla carta.

Puntare il mouse per vedere il nome della stazione.

Clicca sopra per visualizzare le osservazioni e previsioni meteorologiche.

Per cambiare la mappa : fare clic sui pulsanti verdi con una croce nera per ingrandire, il pulsante verde con un trattino per diminuire, o sulla freccia verde per le mappe adiacenti.


METAR-TAF: